createdAt,value
2018-05-15T00:17:35.985Z,73.30
2018-05-15T00:20:03.467Z,74.00
2018-05-15T00:22:30.978Z,74.00
2018-05-15T00:24:59.284Z,74.50
2018-05-15T00:27:26.808Z,74.20
2018-05-15T00:29:54.342Z,74.20
2018-05-15T00:32:21.886Z,74.70
2018-05-15T00:34:49.414Z,74.50
2018-05-15T00:37:16.974Z,74.80
2018-05-15T00:39:45.264Z,72.90
2018-05-15T00:42:12.792Z,72.90
2018-05-15T00:44:41.082Z,70.70
2018-05-15T00:47:09.379Z,69.20
2018-05-15T00:49:36.912Z,69.20
2018-05-15T00:52:05.179Z,66.80
2018-05-15T00:54:33.482Z,65.50
2018-05-15T00:57:01.065Z,66.10
2018-05-15T00:59:29.311Z,63.90
2018-05-15T01:01:56.831Z,63.90
2018-05-15T01:04:24.387Z,63.50
2018-05-15T01:06:51.935Z,63.00
2018-05-15T01:09:19.556Z,61.20
2018-05-15T01:11:47.166Z,61.50
2018-05-15T01:14:20.575Z,60.90
2018-05-15T01:16:48.981Z,60.10
2018-05-15T01:19:16.648Z,60.00
2018-05-15T01:21:44.280Z,59.40
2018-05-15T01:24:12.635Z,58.70
2018-05-15T01:26:40.222Z,58.70
2018-05-15T01:29:08.567Z,58.00
2018-05-15T01:31:36.199Z,57.90
2018-05-15T01:34:03.782Z,57.90
2018-05-15T01:36:31.399Z,57.40
2018-05-15T01:38:59.007Z,56.90
2018-05-15T01:41:26.647Z,57.00
2018-05-15T01:43:54.270Z,57.00
2018-05-15T01:46:22.892Z,56.20
2018-05-15T01:48:50.511Z,56.20
2018-05-15T01:51:18.914Z,55.60
2018-05-15T01:53:46.506Z,55.60
2018-05-15T01:56:14.102Z,55.50
2018-05-15T01:58:41.738Z,55.40
2018-05-15T02:01:09.386Z,55.40
2018-05-15T02:03:36.961Z,54.80
2018-05-15T02:06:04.578Z,55.60
2018-05-15T02:08:32.815Z,55.10
2018-05-15T02:11:00.526Z,55.00
2018-05-15T02:13:28.158Z,55.00
2018-05-15T02:15:56.512Z,54.90
2018-05-15T02:18:24.953Z,55.10
2018-05-15T02:20:52.554Z,55.10
2018-05-15T02:23:20.152Z,54.80
2018-05-15T02:25:47.748Z,54.70
2018-05-15T02:28:15.334Z,54.70
2018-05-15T02:30:42.981Z,54.50
2018-05-15T02:33:10.596Z,55.00
2018-05-15T02:35:38.964Z,55.00
2018-05-15T02:38:07.352Z,55.30
2018-05-15T02:40:34.933Z,55.20
2018-05-15T02:43:02.525Z,55.00
2018-05-15T02:45:30.149Z,54.90
2018-05-15T02:47:57.771Z,54.80
2018-05-15T02:50:25.375Z,54.50
2018-05-15T02:52:53.009Z,54.50
2018-05-15T02:55:21.391Z,54.90
2018-05-15T02:57:49.754Z,54.70
2018-05-15T03:00:17.369Z,54.60
2018-05-15T03:02:44.984Z,55.10
2018-05-15T03:05:13.346Z,55.00
2018-05-15T03:07:40.932Z,55.00
2018-05-15T03:10:09.281Z,55.00
2018-05-15T03:12:36.955Z,55.00
2018-05-15T03:15:05.346Z,55.00
2018-05-15T03:17:33.707Z,55.40
2018-05-15T03:20:01.333Z,55.30
2018-05-15T03:22:28.897Z,55.80
2018-05-15T03:24:56.536Z,56.00
2018-05-15T03:27:24.150Z,56.30
2018-05-15T03:29:51.757Z,57.00
2018-05-15T03:32:19.414Z,57.20
2018-05-15T03:34:47.022Z,58.70
2018-05-15T03:37:16.109Z,57.90
2018-05-15T03:39:43.716Z,57.90
2018-05-15T03:42:11.296Z,57.70
2018-05-15T03:44:38.920Z,57.60
2018-05-15T03:47:08.304Z,59.00
2018-05-15T03:49:35.884Z,58.60
2018-05-15T03:52:04.276Z,57.60
2018-05-15T03:54:32.618Z,57.50
2018-05-15T03:57:00.276Z,57.50
2018-05-15T03:59:28.680Z,57.90
2018-05-15T04:02:08.842Z,58.60
2018-05-15T04:04:49.024Z,58.40
2018-05-15T04:07:28.451Z,58.30
2018-05-15T04:09:56.100Z,58.60
2018-05-15T04:12:24.576Z,59.20
2018-05-15T04:14:52.954Z,58.50
2018-05-15T04:17:21.347Z,58.20
2018-05-15T04:19:48.970Z,58.20
2018-05-15T04:22:16.649Z,58.00
2018-05-15T04:24:44.276Z,58.00
2018-05-15T04:27:11.900Z,57.80
2018-05-15T04:29:39.512Z,57.40
2018-05-15T04:32:07.120Z,57.20
2018-05-15T04:34:34.903Z,56.80
2018-05-15T04:37:02.584Z,56.40
2018-05-15T04:39:30.173Z,56.00
2018-05-15T04:41:57.760Z,55.00
2018-05-15T04:44:25.355Z,55.60
2018-05-15T04:46:52.925Z,55.60
2018-05-15T04:49:20.519Z,54.30
2018-05-15T04:51:48.864Z,53.60
2018-05-15T04:54:16.474Z,53.70
2018-05-15T04:56:44.819Z,54.10
2018-05-15T04:59:12.412Z,54.10
2018-05-15T05:01:40.023Z,53.00
2018-05-15T05:04:07.617Z,52.60
2018-05-15T05:06:35.996Z,49.80
2018-05-15T05:09:03.617Z,49.70
2018-05-15T05:11:31.207Z,48.60
2018-05-15T05:13:58.831Z,47.70
2018-05-15T05:16:26.446Z,47.40
2018-05-15T05:18:55.210Z,44.90
2018-05-15T05:21:22.834Z,44.80
2018-05-15T05:23:50.449Z,44.90
2018-05-15T05:26:18.817Z,43.50
2018-05-15T05:28:46.428Z,43.50
2018-05-15T05:31:14.111Z,41.70
2018-05-15T05:33:41.722Z,40.80
2018-05-15T05:36:10.109Z,37.90
2018-05-15T05:38:38.763Z,37.00
2018-05-15T05:41:06.399Z,37.00
2018-05-15T05:43:33.971Z,36.70
2018-05-15T05:46:01.595Z,36.90
2018-05-15T05:48:29.253Z,37.60
2018-05-15T05:50:56.875Z,37.20
2018-05-15T05:53:24.483Z,36.00
2018-05-15T05:55:52.282Z,36.30
2018-05-15T05:58:19.908Z,36.80
2018-05-15T06:00:47.513Z,34.50
2018-05-15T06:03:15.118Z,34.90
2018-05-15T06:05:42.683Z,34.60
2018-05-15T06:08:10.268Z,35.10
2018-05-15T06:10:37.843Z,33.90
2018-05-15T06:13:05.460Z,33.00
2018-05-15T06:15:33.067Z,33.00
2018-05-15T06:18:00.658Z,32.00
2018-05-15T06:20:28.259Z,32.30
2018-05-15T06:22:58.839Z,32.60
2018-05-15T06:25:26.434Z,33.00
2018-05-15T06:27:54.060Z,32.30
2018-05-15T06:30:22.474Z,31.30
2018-05-15T06:32:50.055Z,31.30
2018-05-15T06:35:17.663Z,32.20
2018-05-15T06:37:47.975Z,34.20
2018-05-15T06:40:15.590Z,33.80
2018-05-15T06:42:43.227Z,35.30
2018-05-15T06:45:11.617Z,36.80
2018-05-15T06:47:40.004Z,38.60
2018-05-15T06:50:07.619Z,38.60
2018-05-15T06:52:36.193Z,39.60
2018-05-15T06:55:03.851Z,41.20
2018-05-15T06:57:31.484Z,41.80
2018-05-15T06:59:59.076Z,41.30
2018-05-15T07:02:26.702Z,42.70
2018-05-15T07:04:54.331Z,42.10
2018-05-15T07:07:22.685Z,41.50
2018-05-15T07:09:50.237Z,41.50
2018-05-15T07:12:17.834Z,42.20
2018-05-15T07:14:46.257Z,41.00
2018-05-15T07:17:13.831Z,41.00
2018-05-15T07:19:41.417Z,41.30
2018-05-15T07:22:09.990Z,42.90
2018-05-15T07:24:37.639Z,43.00
2018-05-15T07:27:05.241Z,41.00
2018-05-15T07:29:33.646Z,41.00
2018-05-15T07:32:01.269Z,40.90
2018-05-15T07:34:29.670Z,40.60
2018-05-15T07:36:57.264Z,40.60
2018-05-15T07:39:24.870Z,42.20
2018-05-15T07:41:53.307Z,40.30
2018-05-15T07:44:31.316Z,40.50
2018-05-15T07:46:58.926Z,39.00
2018-05-15T07:49:27.296Z,40.20
2018-05-15T07:51:55.682Z,41.20
2018-05-15T07:54:24.056Z,39.90
2018-05-15T07:56:52.436Z,39.70
2018-05-15T07:59:20.849Z,39.70
2018-05-15T08:01:48.457Z,39.40
2018-05-15T08:04:16.058Z,37.30
2018-05-15T08:06:49.514Z,38.30
2018-05-15T08:09:17.062Z,39.30
2018-05-15T08:11:44.718Z,37.90
2018-05-15T08:14:12.364Z,38.70
2018-05-15T08:16:39.993Z,37.70
2018-05-15T08:19:07.597Z,37.80
2018-05-15T08:21:36.000Z,38.60
2018-05-15T08:24:03.600Z,38.50
2018-05-15T08:26:31.192Z,38.00
2018-05-15T08:28:58.801Z,38.00
2018-05-15T08:31:27.203Z,37.50
2018-05-15T08:33:54.828Z,37.40
2018-05-15T08:36:22.452Z,38.20
2018-05-15T08:38:50.078Z,38.10
2018-05-15T08:41:17.636Z,38.10
2018-05-15T08:43:45.264Z,38.30
2018-05-15T08:46:12.892Z,37.50
2018-05-15T08:48:40.468Z,36.90
2018-05-15T08:51:08.046Z,37.30
2018-05-15T08:53:35.652Z,37.30
2018-05-15T08:56:03.284Z,37.50
2018-05-15T08:58:31.640Z,36.20
2018-05-15T09:00:59.272Z,36.00
2018-05-15T09:03:26.848Z,36.30
2018-05-15T09:05:54.436Z,35.00
2018-05-15T09:08:22.769Z,38.50
2018-05-15T09:10:50.367Z,38.10
2018-05-15T09:13:17.983Z,33.70
2018-05-15T09:15:45.605Z,34.80
2018-05-15T09:18:14.107Z,34.10
2018-05-15T09:20:41.631Z,34.10
2018-05-15T09:23:10.030Z,35.20
2018-05-15T09:25:38.388Z,33.40
2018-05-15T09:28:05.965Z,33.30
2018-05-15T09:30:34.735Z,34.00
2018-05-15T09:33:02.461Z,33.90
2018-05-15T09:35:30.023Z,34.00
2018-05-15T09:37:57.626Z,34.60
2018-05-15T09:40:26.020Z,35.60
2018-05-15T09:42:54.384Z,35.20
2018-05-15T09:45:22.102Z,35.10
2018-05-15T09:47:49.734Z,34.70
2018-05-15T09:50:17.368Z,34.90
2018-05-15T09:52:45.733Z,35.10
2018-05-15T09:55:13.338Z,35.00
2018-05-15T09:57:40.906Z,34.80
2018-05-15T10:00:08.518Z,35.40
2018-05-15T10:02:36.108Z,35.10
2018-05-15T10:05:04.484Z,33.50
2018-05-15T10:07:32.889Z,32.30
2018-05-15T10:10:00.508Z,32.30
2018-05-15T10:12:28.142Z,33.00
2018-05-15T10:14:55.740Z,31.80
2018-05-15T10:17:24.097Z,31.00
2018-05-15T10:19:51.759Z,30.80
2018-05-15T10:22:19.316Z,32.70
2018-05-15T10:24:46.892Z,31.10
2018-05-15T10:27:15.276Z,31.20
2018-05-15T10:29:43.656Z,32.70
2018-05-15T10:32:12.050Z,33.90
2018-05-15T10:34:40.398Z,33.90
2018-05-15T10:37:08.014Z,33.30
2018-05-15T10:39:35.586Z,34.80
2018-05-15T10:42:03.190Z,35.20
2018-05-15T10:44:31.582Z,35.00
2018-05-15T10:46:59.944Z,35.30
2018-05-15T10:49:28.340Z,34.20
2018-05-15T10:51:56.714Z,32.50
2018-05-15T10:54:24.336Z,32.40
2018-05-15T10:56:51.888Z,33.50
2018-05-15T10:59:19.568Z,33.70
2018-05-15T11:01:47.061Z,32.50
2018-05-15T11:04:15.452Z,33.30
2018-05-15T11:06:43.079Z,33.30
2018-05-15T11:09:10.727Z,33.80
2018-05-15T11:11:38.338Z,34.20
2018-05-15T11:14:05.954Z,34.40
2018-05-15T11:16:33.678Z,36.30
2018-05-15T11:19:13.190Z,35.40
2018-05-15T11:21:52.601Z,35.00
2018-05-15T11:24:32.090Z,34.40
2018-05-15T11:26:59.657Z,36.60
2018-05-15T11:29:27.262Z,36.80
2018-05-15T11:31:54.882Z,36.60
2018-05-15T11:34:22.479Z,37.00
2018-05-15T11:36:50.059Z,36.60
2018-05-15T11:39:18.397Z,38.30
2018-05-15T11:41:46.129Z,38.30
2018-05-15T11:44:13.696Z,39.10
2018-05-15T11:46:41.304Z,42.30
2018-05-15T11:49:09.506Z,42.40
2018-05-15T11:51:38.124Z,39.30
2018-05-15T11:54:04.832Z,39.20
2018-05-15T11:56:32.521Z,37.60
2018-05-15T11:59:00.113Z,32.40
2018-05-15T12:01:27.832Z,32.80
2018-05-15T12:03:55.500Z,31.40
2018-05-15T12:06:23.092Z,33.10
2018-05-15T12:08:50.704Z,34.30
2018-05-15T12:11:18.296Z,36.40
2018-05-15T12:13:45.862Z,49.40
2018-05-15T12:16:13.565Z,52.00
2018-05-15T12:18:41.174Z,55.80
2018-05-15T12:21:08.917Z,61.60
2018-05-15T12:23:37.266Z,64.70
2018-05-15T12:26:04.901Z,64.90
2018-05-15T12:28:32.552Z,65.20
2018-05-15T12:31:00.132Z,68.10
2018-05-15T12:33:27.782Z,70.10
2018-05-15T12:35:55.429Z,72.40
2018-05-15T12:38:23.741Z,77.10
2018-05-15T12:40:51.311Z,76.90
2018-05-15T12:43:19.704Z,73.60
2018-05-15T12:45:48.061Z,74.20
2018-05-15T12:48:15.676Z,74.20
2018-05-15T12:50:43.260Z,74.90
2018-05-15T12:53:10.906Z,73.90
2018-05-15T12:55:38.533Z,72.60
2018-05-15T12:58:06.162Z,66.70
2018-05-15T13:00:33.731Z,59.70
2018-05-15T13:03:01.340Z,57.80
2018-05-15T13:05:29.063Z,55.50
2018-05-15T13:07:56.640Z,55.80
2018-05-15T13:10:24.216Z,56.70
2018-05-15T13:12:51.797Z,55.30
2018-05-15T13:15:19.422Z,55.20
2018-05-15T13:17:47.034Z,54.10
2018-05-15T13:20:14.648Z,55.20
2018-05-15T13:22:42.236Z,56.90
2018-05-15T13:25:10.090Z,53.00
2018-05-15T13:27:37.712Z,53.30
2018-05-15T13:30:06.090Z,52.00
2018-05-15T13:32:34.461Z,49.50
2018-05-15T13:35:02.070Z,49.00
2018-05-15T13:37:31.742Z,50.20
2018-05-15T13:39:59.389Z,49.10
2018-05-15T13:42:27.005Z,50.20
2018-05-15T13:44:54.598Z,48.60
2018-05-15T13:47:22.274Z,48.80
2018-05-15T13:49:50.104Z,47.80
2018-05-15T13:52:17.660Z,48.10
2018-05-15T13:54:45.284Z,45.80
2018-05-15T13:57:12.928Z,46.80
2018-05-15T13:59:41.310Z,48.10
2018-05-15T14:02:09.700Z,45.30
2018-05-15T14:04:38.078Z,45.40
2018-05-15T14:07:06.474Z,45.30
2018-05-15T14:09:34.153Z,45.30
2018-05-15T14:12:01.790Z,46.10
2018-05-15T14:14:29.366Z,46.30
2018-05-15T14:16:56.984Z,45.00
2018-05-15T14:19:25.396Z,44.60
2018-05-15T14:21:53.024Z,44.60
2018-05-15T14:24:20.631Z,45.30
2018-05-15T14:26:48.206Z,43.80
2018-05-15T14:29:15.819Z,45.10
2018-05-15T14:31:44.170Z,45.80
2018-05-15T14:34:11.837Z,45.80
2018-05-15T14:36:39.460Z,46.00
2018-05-15T14:39:07.035Z,45.30
2018-05-15T14:41:46.619Z,47.10
2018-05-15T14:44:15.188Z,46.70
2018-05-15T14:46:43.589Z,46.10
2018-05-15T14:49:11.169Z,45.70
2018-05-15T14:51:38.748Z,45.50
2018-05-15T14:54:06.378Z,44.80
2018-05-15T14:56:33.976Z,46.00
2018-05-15T14:59:01.630Z,46.90
2018-05-15T15:01:29.230Z,48.30
2018-05-15T15:03:56.808Z,47.70
2018-05-15T15:06:24.433Z,44.90
2018-05-15T15:08:52.262Z,46.20
2018-05-15T15:11:19.878Z,44.30
2018-05-15T15:13:48.274Z,46.00
2018-05-15T15:16:16.676Z,46.60
2018-05-15T15:18:44.292Z,46.70
2018-05-15T15:21:11.894Z,47.70
2018-05-15T15:23:39.529Z,48.70
2018-05-15T15:26:08.066Z,49.50
2018-05-15T15:28:36.629Z,49.50
2018-05-15T15:31:04.249Z,50.00
2018-05-15T15:33:31.842Z,51.00
2018-05-15T15:35:59.464Z,50.80
2018-05-15T15:38:27.108Z,50.60
2018-05-15T15:40:59.453Z,51.90
2018-05-15T15:43:27.088Z,52.10
2018-05-15T15:45:54.688Z,51.50
2018-05-15T15:48:22.551Z,52.50
2018-05-15T15:50:50.164Z,51.30
2018-05-15T15:53:18.548Z,52.60
2018-05-15T15:55:46.963Z,54.10
2018-05-15T15:58:14.587Z,54.00
2018-05-15T16:00:42.960Z,54.70
2018-05-15T16:03:11.324Z,56.10
2018-05-15T16:05:38.918Z,56.30
2018-05-15T16:08:06.556Z,55.70
2018-05-15T16:10:34.942Z,56.20
2018-05-15T16:13:03.327Z,56.20
2018-05-15T16:15:31.794Z,54.70
2018-05-15T16:18:02.826Z,54.70
2018-05-15T16:20:30.402Z,55.60
2018-05-15T16:22:58.770Z,56.30
2018-05-15T16:25:34.884Z,56.30
2018-05-15T16:28:02.469Z,56.30
2018-05-15T16:30:30.064Z,55.90
2018-05-15T16:32:58.489Z,55.70
2018-05-15T16:35:26.136Z,55.70
2018-05-15T16:37:53.788Z,55.00
2018-05-15T16:40:21.382Z,55.10
2018-05-15T16:43:01.858Z,56.00
2018-05-15T16:45:29.494Z,57.20
2018-05-15T16:48:00.166Z,57.70
2018-05-15T16:50:27.778Z,58.50
2018-05-15T16:52:55.358Z,58.60
2018-05-15T16:55:22.978Z,59.70
2018-05-15T16:57:50.566Z,59.20
2018-05-15T17:00:18.168Z,60.30
2018-05-15T17:02:45.768Z,61.60
2018-05-15T17:05:13.368Z,61.50
2018-05-15T17:07:40.984Z,62.50
2018-05-15T17:10:08.590Z,63.80
2018-05-15T17:12:48.748Z,63.20
2018-05-15T17:15:16.494Z,63.30
2018-05-15T17:17:44.154Z,63.10
2018-05-15T17:20:11.779Z,63.40
2018-05-15T17:22:39.625Z,64.30
2018-05-15T17:25:08.004Z,64.80
2018-05-15T17:27:46.489Z,64.30
2018-05-15T17:30:14.102Z,65.00
2018-05-15T17:32:41.722Z,64.50
2018-05-15T17:35:09.489Z,64.70
2018-05-15T17:37:38.089Z,64.60
2018-05-15T17:40:06.478Z,65.30
2018-05-15T17:42:34.873Z,65.20
2018-05-15T17:45:02.564Z,65.10
2018-05-15T17:47:30.239Z,65.30
2018-05-15T17:49:57.873Z,65.10
2018-05-15T17:52:25.466Z,65.10
2018-05-15T17:54:53.092Z,65.70
2018-05-15T17:57:20.692Z,66.10
2018-05-15T17:59:48.368Z,66.80
2018-05-15T18:02:16.108Z,66.60
2018-05-15T18:04:43.688Z,67.20
2018-05-15T18:07:11.303Z,67.40
2018-05-15T18:09:38.894Z,67.40
2018-05-15T18:12:06.486Z,68.70
2018-05-15T18:14:34.881Z,68.70
2018-05-15T18:17:02.485Z,68.70
2018-05-15T18:19:30.155Z,69.80
2018-05-15T18:21:57.795Z,70.10
2018-05-15T18:24:25.383Z,71.10
2018-05-15T18:26:53.031Z,71.90
2018-05-15T18:29:20.669Z,72.70
2018-05-15T18:31:48.274Z,74.40
2018-05-15T18:34:15.866Z,74.80
2018-05-15T18:36:44.256Z,76.40
2018-05-15T18:39:11.965Z,76.40
2018-05-15T18:41:39.560Z,77.50
2018-05-15T18:44:07.943Z,78.80
2018-05-15T18:46:36.320Z,79.30
2018-05-15T18:49:03.986Z,79.30
2018-05-15T18:51:32.402Z,79.20
2018-05-15T18:54:00.025Z,79.20
2018-05-15T18:56:28.341Z,80.80
2018-05-15T18:58:55.996Z,80.80
2018-05-15T19:01:23.602Z,81.30
2018-05-15T19:03:51.238Z,82.10
2018-05-15T19:06:18.892Z,83.20
2018-05-15T19:08:46.506Z,83.20
2018-05-15T19:11:19.740Z,83.70
2018-05-15T19:13:47.455Z,83.70
2018-05-15T19:16:15.052Z,83.40
2018-05-15T19:18:42.641Z,83.90
2018-05-15T19:21:10.264Z,84.40
2018-05-15T19:23:37.893Z,85.00
2018-05-15T19:26:05.601Z,84.60
2018-05-15T19:28:33.221Z,84.50
2018-05-15T19:31:01.609Z,85.00
2018-05-15T19:33:34.861Z,85.00
2018-05-15T19:36:08.299Z,85.20
2018-05-15T19:38:36.665Z,85.10
2018-05-15T19:41:07.154Z,85.10
2018-05-15T19:43:34.799Z,85.40
2018-05-15T19:46:02.462Z,84.40
2018-05-15T19:48:30.099Z,85.00
2018-05-15T19:50:58.505Z,85.10
2018-05-15T19:53:26.177Z,85.00
2018-05-15T19:55:53.869Z,84.70
2018-05-15T19:58:21.713Z,85.00
2018-05-15T20:00:49.308Z,84.90
2018-05-15T20:03:16.921Z,85.50
2018-05-15T20:05:46.479Z,84.20
2018-05-15T20:08:15.137Z,85.00
2018-05-15T20:10:42.717Z,85.00
2018-05-15T20:13:10.391Z,86.60
2018-05-15T20:15:38.141Z,85.90
2018-05-15T20:18:05.743Z,86.00
2018-05-15T20:20:33.637Z,85.90
2018-05-15T20:23:01.451Z,85.50
2018-05-15T20:25:31.769Z,85.40
2018-05-15T20:27:59.385Z,85.30
2018-05-15T20:30:30.373Z,84.30
2018-05-15T20:33:03.189Z,86.00
2018-05-15T20:35:30.807Z,86.00
2018-05-15T20:37:58.649Z,85.30
2018-05-15T20:40:26.302Z,85.50
2018-05-15T20:42:53.919Z,86.10
2018-05-15T20:45:22.343Z,85.80
2018-05-15T20:47:49.945Z,85.70
2018-05-15T20:50:17.639Z,85.30
2018-05-15T20:52:45.245Z,85.90
2018-05-15T20:55:12.902Z,85.90
2018-05-15T20:57:45.621Z,85.90
2018-05-15T21:00:13.275Z,85.40
2018-05-15T21:02:41.675Z,85.90
2018-05-15T21:05:09.277Z,85.90
2018-05-15T21:07:57.726Z,85.90
2018-05-15T21:10:25.296Z,85.70
2018-05-15T21:12:52.898Z,85.40
2018-05-15T21:15:20.506Z,85.90
2018-05-15T21:17:48.107Z,85.80
2018-05-15T21:20:16.511Z,85.70
2018-05-15T21:22:44.123Z,85.70
2018-05-15T21:25:17.313Z,85.90
2018-05-15T21:27:44.965Z,85.90
2018-05-15T21:30:12.521Z,85.90
2018-05-15T21:32:40.088Z,85.90
2018-05-15T21:35:07.731Z,85.90
2018-05-15T21:37:35.341Z,85.90
2018-05-15T21:40:09.749Z,86.00
2018-05-15T21:42:38.874Z,86.00
2018-05-15T21:45:07.288Z,86.00
2018-05-15T21:47:34.872Z,86.00
2018-05-15T21:50:02.483Z,85.90
2018-05-15T21:52:40.371Z,85.80
2018-05-15T21:55:08.785Z,87.10
2018-05-15T21:57:36.387Z,86.90
2018-05-15T22:00:04.750Z,87.70
2018-05-15T22:02:32.364Z,87.40
2018-05-15T22:04:59.985Z,87.60
2018-05-15T22:07:27.589Z,87.90
2018-05-15T22:09:55.233Z,88.00
2018-05-15T22:12:35.534Z,88.40
2018-05-15T22:15:15.074Z,88.30
2018-05-15T22:17:54.482Z,87.90
2018-05-15T22:20:34.180Z,88.30
2018-05-15T22:23:01.211Z,88.40
2018-05-15T22:25:28.844Z,88.30
2018-05-15T22:27:56.470Z,88.00
2018-05-15T22:30:24.830Z,88.50
2018-05-15T22:32:52.417Z,88.40
2018-05-15T22:38:15.076Z,88.00
2018-05-15T22:40:43.472Z,87.30
2018-05-15T22:43:11.078Z,87.30
2018-05-15T22:45:38.709Z,87.50
2018-05-15T22:48:06.315Z,87.30
2018-05-15T22:50:33.950Z,87.50
2018-05-15T22:53:01.593Z,87.80
2018-05-15T22:55:29.169Z,87.10
2018-05-15T22:57:56.808Z,86.00
2018-05-15T23:00:24.422Z,86.80
2018-05-15T23:02:52.789Z,86.90
2018-05-15T23:05:20.393Z,86.90
2018-05-15T23:07:48.760Z,86.90
2018-05-15T23:10:17.112Z,86.10
2018-05-15T23:12:44.722Z,86.00
2018-05-15T23:15:12.356Z,86.00
2018-05-15T23:17:40.082Z,86.00
2018-05-15T23:20:07.646Z,86.00
2018-05-15T23:22:44.180Z,86.00
2018-05-15T23:25:11.806Z,86.10
2018-05-15T23:27:39.431Z,86.70
2018-05-15T23:30:07.062Z,87.60
2018-05-15T23:32:34.682Z,86.60
2018-05-15T23:35:02.316Z,87.00
2018-05-15T23:37:29.912Z,86.20
2018-05-15T23:39:58.927Z,86.10
2018-05-15T23:42:26.570Z,86.00
2018-05-15T23:44:54.932Z,86.80
2018-05-15T23:47:22.534Z,86.60
2018-05-15T23:49:50.160Z,86.60
2018-05-15T23:52:19.258Z,87.00
2018-05-15T23:54:46.900Z,87.00
2018-05-15T23:57:14.541Z,87.50
2018-05-15T23:59:42.153Z,86.80
